Aviation Digital Data Service (ADDS)

Output produced by TAFs form (0924 UTC 27 November 2014)
found at http://aviationweather.gov/adds/tafs/
 
KDMN 270544Z 2706/2806 02005KT P6SM SKC 
     FM271800 09007KT P6SM SKC